sensor_id;sensor_type;location;lat;lon;timestamp;temperature;humidity
23713;DHT22;12035;49.978;8.298;2023-07-09T00:01:27;29.20;41.10
23713;DHT22;12035;49.978;8.298;2023-07-09T00:06:24;29.10;40.60
23713;DHT22;12035;49.978;8.298;2023-07-09T00:11:21;29.10;40.40
23713;DHT22;12035;49.978;8.298;2023-07-09T00:16:21;29.00;40.50
23713;DHT22;12035;49.978;8.298;2023-07-09T00:21:22;28.80;40.70
23713;DHT22;12035;49.978;8.298;2023-07-09T00:26:20;28.80;40.90
23713;DHT22;12035;49.978;8.298;2023-07-09T00:31:18;28.70;40.90
23713;DHT22;12035;49.978;8.298;2023-07-09T00:36:18;28.70;41.00
23713;DHT22;12035;49.978;8.298;2023-07-09T00:41:20;28.60;41.10
23713;DHT22;12035;49.978;8.298;2023-07-09T00:52:22;28.60;41.60
23713;DHT22;12035;49.978;8.298;2023-07-09T00:57:24;28.50;41.60
23713;DHT22;12035;49.978;8.298;2023-07-09T01:02:23;28.50;41.90
23713;DHT22;12035;49.978;8.298;2023-07-09T01:07:20;28.40;41.80
23713;DHT22;12035;49.978;8.298;2023-07-09T01:12:19;28.40;42.20
23713;DHT22;12035;49.978;8.298;2023-07-09T01:17:18;28.40;42.30
23713;DHT22;12035;49.978;8.298;2023-07-09T01:22:19;28.40;42.40
23713;DHT22;12035;49.978;8.298;2023-07-09T01:27:20;28.30;42.90
23713;DHT22;12035;49.978;8.298;2023-07-09T01:32:20;28.30;43.10
23713;DHT22;12035;49.978;8.298;2023-07-09T01:37:22;28.20;43.60
23713;DHT22;12035;49.978;8.298;2023-07-09T01:42:21;28.20;44.30
23713;DHT22;12035;49.978;8.298;2023-07-09T01:47:21;28.10;44.50
23713;DHT22;12035;49.978;8.298;2023-07-09T01:52:20;28.10;44.80
23713;DHT22;12035;49.978;8.298;2023-07-09T01:57:20;28.00;45.00
23713;DHT22;12035;49.978;8.298;2023-07-09T02:02:19;27.90;45.30
23713;DHT22;12035;49.978;8.298;2023-07-09T02:07:16;27.90;45.30
23713;DHT22;12035;49.978;8.298;2023-07-09T02:12:16;27.80;45.50
23713;DHT22;12035;49.978;8.298;2023-07-09T02:17:15;27.70;45.80
23713;DHT22;12035;49.978;8.298;2023-07-09T02:22:12;27.70;45.90
23713;DHT22;12035;49.978;8.298;2023-07-09T02:27:10;27.50;46.00
23713;DHT22;12035;49.978;8.298;2023-07-09T02:32:13;27.40;46.40
23713;DHT22;12035;49.978;8.298;2023-07-09T02:37:14;27.30;46.60
23713;DHT22;12035;49.978;8.298;2023-07-09T02:42:15;27.30;46.60
23713;DHT22;12035;49.978;8.298;2023-07-09T02:47:15;27.20;46.70
23713;DHT22;12035;49.978;8.298;2023-07-09T02:52:12;27.10;46.80
23713;DHT22;12035;49.978;8.298;2023-07-09T02:57:09;27.00;46.80
23713;DHT22;12035;49.978;8.298;2023-07-09T03:02:06;27.00;47.10
23713;DHT22;12035;49.978;8.298;2023-07-09T03:07:05;26.90;47.20
23713;DHT22;12035;49.978;8.298;2023-07-09T03:12:03;26.80;47.60
23713;DHT22;12035;49.978;8.298;2023-07-09T03:17:00;26.70;47.70
23713;DHT22;12035;49.978;8.298;2023-07-09T03:21:57;26.70;48.20
23713;DHT22;12035;49.978;8.298;2023-07-09T03:26:57;26.70;47.60
23713;DHT22;12035;49.978;8.298;2023-07-09T03:31:54;26.70;48.00
23713;DHT22;12035;49.978;8.298;2023-07-09T03:36:51;26.60;47.80
23713;DHT22;12035;49.978;8.298;2023-07-09T03:41:48;26.60;47.90
23713;DHT22;12035;49.978;8.298;2023-07-09T03:46:47;26.60;47.90
23713;DHT22;12035;49.978;8.298;2023-07-09T03:51:44;26.60;47.90
23713;DHT22;12035;49.978;8.298;2023-07-09T03:56:41;26.60;47.80
23713;DHT22;12035;49.978;8.298;2023-07-09T04:01:38;26.60;47.80
23713;DHT22;12035;49.978;8.298;2023-07-09T04:06:36;26.60;47.80
23713;DHT22;12035;49.978;8.298;2023-07-09T04:11:33;26.70;47.90
23713;DHT22;12035;49.978;8.298;2023-07-09T04:16:30;26.80;47.90
23713;DHT22;12035;49.978;8.298;2023-07-09T04:21:27;26.90;47.80
23713;DHT22;12035;49.978;8.298;2023-07-09T04:26:26;27.10;47.70
23713;DHT22;12035;49.978;8.298;2023-07-09T04:31:24;27.40;47.60
23713;DHT22;12035;49.978;8.298;2023-07-09T04:36:21;27.70;47.60
23713;DHT22;12035;49.978;8.298;2023-07-09T04:41:18;28.00;47.40
23713;DHT22;12035;49.978;8.298;2023-07-09T04:46:17;28.40;47.20
23713;DHT22;12035;49.978;8.298;2023-07-09T04:51:14;28.90;46.90
23713;DHT22;12035;49.978;8.298;2023-07-09T04:56:11;29.40;46.60
23713;DHT22;12035;49.978;8.298;2023-07-09T05:01:08;29.90;46.10
23713;DHT22;12035;49.978;8.298;2023-07-09T05:06:06;30.50;45.90
23713;DHT22;12035;49.978;8.298;2023-07-09T05:11:03;30.90;45.70
23713;DHT22;12035;49.978;8.298;2023-07-09T05:16:00;31.50;45.10
23713;DHT22;12035;49.978;8.298;2023-07-09T05:20:57;32.10;44.80
23713;DHT22;12035;49.978;8.298;2023-07-09T05:25:57;32.60;44.60
23713;DHT22;12035;49.978;8.298;2023-07-09T05:30:55;33.20;44.30
23713;DHT22;12035;49.978;8.298;2023-07-09T05:35:52;33.80;43.50
23713;DHT22;12035;49.978;8.298;2023-07-09T05:41:00;34.30;42.80
23713;DHT22;12035;49.978;8.298;2023-07-09T05:45:58;35.00;41.40
23713;DHT22;12035;49.978;8.298;2023-07-09T05:50:55;35.50;41.40
23713;DHT22;12035;49.978;8.298;2023-07-09T05:55:53;36.00;40.00
23713;DHT22;12035;49.978;8.298;2023-07-09T06:00:52;36.50;39.50
23713;DHT22;12035;49.978;8.298;2023-07-09T06:05:52;36.90;38.40
23713;DHT22;12035;49.978;8.298;2023-07-09T06:10:53;37.40;38.10
23713;DHT22;12035;49.978;8.298;2023-07-09T06:15:54;37.80;37.10
23713;DHT22;12035;49.978;8.298;2023-07-09T06:20:53;38.20;36.70
23713;DHT22;12035;49.978;8.298;2023-07-09T06:25:51;38.70;35.90
23713;DHT22;12035;49.978;8.298;2023-07-09T06:30:49;39.20;35.00
23713;DHT22;12035;49.978;8.298;2023-07-09T06:35:49;39.60;34.10
23713;DHT22;12035;49.978;8.298;2023-07-09T06:40:47;40.00;33.80
23713;DHT22;12035;49.978;8.298;2023-07-09T06:45:51;40.40;33.10
23713;DHT22;12035;49.978;8.298;2023-07-09T06:50:52;40.80;31.90
23713;DHT22;12035;49.978;8.298;2023-07-09T06:55:50;41.30;32.40
23713;DHT22;12035;49.978;8.298;2023-07-09T07:00:48;41.80;31.90
23713;DHT22;12035;49.978;8.298;2023-07-09T07:05:47;42.30;31.00
23713;DHT22;12035;49.978;8.298;2023-07-09T07:10:48;42.70;30.60
23713;DHT22;12035;49.978;8.298;2023-07-09T07:15:48;43.00;29.80
23713;DHT22;12035;49.978;8.298;2023-07-09T07:20:46;43.00;29.70
23713;DHT22;12035;49.978;8.298;2023-07-09T07:25:46;43.00;29.60
23713;DHT22;12035;49.978;8.298;2023-07-09T07:30:43;43.10;29.60
23713;DHT22;12035;49.978;8.298;2023-07-09T07:35:40;43.00;29.50
23713;DHT22;12035;49.978;8.298;2023-07-09T07:40:37;42.90;29.40
23713;DHT22;12035;49.978;8.298;2023-07-09T07:45:37;42.90;29.50
23713;DHT22;12035;49.978;8.298;2023-07-09T07:50:36;42.90;28.80
23713;DHT22;12035;49.978;8.298;2023-07-09T07:55:33;42.90;28.40
23713;DHT22;12035;49.978;8.298;2023-07-09T08:00:31;42.70;28.40
23713;DHT22;12035;49.978;8.298;2023-07-09T08:05:30;42.60;28.00
23713;DHT22;12035;49.978;8.298;2023-07-09T08:10:27;42.50;27.60
23713;DHT22;12035;49.978;8.298;2023-07-09T08:15:24;42.30;27.90
23713;DHT22;12035;49.978;8.298;2023-07-09T08:20:21;42.30;28.20
23713;DHT22;12035;49.978;8.298;2023-07-09T08:25:20;42.30;27.90
23713;DHT22;12035;49.978;8.298;2023-07-09T08:30:17;42.10;27.90
23713;DHT22;12035;49.978;8.298;2023-07-09T08:35:14;41.80;28.00
23713;DHT22;12035;49.978;8.298;2023-07-09T08:40:14;41.80;28.10
23713;DHT22;12035;49.978;8.298;2023-07-09T08:45:24;41.70;28.30
23713;DHT22;12035;49.978;8.298;2023-07-09T08:50:35;41.40;28.40
23713;DHT22;12035;49.978;8.298;2023-07-09T08:55:34;41.20;28.60
23713;DHT22;12035;49.978;8.298;2023-07-09T09:00:42;41.10;29.00
23713;DHT22;12035;49.978;8.298;2023-07-09T09:05:43;41.10;28.70
23713;DHT22;12035;49.978;8.298;2023-07-09T09:10:46;40.80;28.70
23713;DHT22;12035;49.978;8.298;2023-07-09T09:15:47;40.50;29.10
23713;DHT22;12035;49.978;8.298;2023-07-09T09:20:48;40.30;29.40
23713;DHT22;12035;49.978;8.298;2023-07-09T09:25:55;40.00;29.70
23713;DHT22;12035;49.978;8.298;2023-07-09T09:30:54;39.80;29.80
23713;DHT22;12035;49.978;8.298;2023-07-09T09:36:02;39.70;29.90
23713;DHT22;12035;49.978;8.298;2023-07-09T09:41:02;39.70;30.10
23713;DHT22;12035;49.978;8.298;2023-07-09T09:46:00;39.80;29.90
23713;DHT22;12035;49.978;8.298;2023-07-09T09:51:04;39.80;30.00
23713;DHT22;12035;49.978;8.298;2023-07-09T09:56:04;39.90;30.00
23713;DHT22;12035;49.978;8.298;2023-07-09T10:01:04;39.90;30.00
23713;DHT22;12035;49.978;8.298;2023-07-09T10:06:06;40.00;30.00
23713;DHT22;12035;49.978;8.298;2023-07-09T10:11:16;39.80;30.00
23713;DHT22;12035;49.978;8.298;2023-07-09T10:16:25;39.50;30.20
23713;DHT22;12035;49.978;8.298;2023-07-09T10:21:34;39.20;30.40
23713;DHT22;12035;49.978;8.298;2023-07-09T10:26:38;39.10;30.50
23713;DHT22;12035;49.978;8.298;2023-07-09T10:31:46;39.00;30.20
23713;DHT22;12035;49.978;8.298;2023-07-09T10:37:03;39.00;30.10
23713;DHT22;12035;49.978;8.298;2023-07-09T10:42:15;38.90;30.10
23713;DHT22;12035;49.978;8.298;2023-07-09T10:47:25;38.90;29.70
23713;DHT22;12035;49.978;8.298;2023-07-09T10:52:28;38.80;29.50
23713;DHT22;12035;49.978;8.298;2023-07-09T10:57:29;38.80;29.70
23713;DHT22;12035;49.978;8.298;2023-07-09T11:02:31;38.80;29.60
23713;DHT22;12035;49.978;8.298;2023-07-09T11:07:32;38.80;29.40
23713;DHT22;12035;49.978;8.298;2023-07-09T11:12:35;38.90;29.30
23713;DHT22;12035;49.978;8.298;2023-07-09T11:17:37;39.00;29.00
23713;DHT22;12035;49.978;8.298;2023-07-09T11:22:40;39.10;28.80
23713;DHT22;12035;49.978;8.298;2023-07-09T11:27:48;39.20;28.90
23713;DHT22;12035;49.978;8.298;2023-07-09T11:32:51;39.20;28.70
23713;DHT22;12035;49.978;8.298;2023-07-09T11:37:49;39.20;29.30
23713;DHT22;12035;49.978;8.298;2023-07-09T11:42:51;39.20;28.60
23713;DHT22;12035;49.978;8.298;2023-07-09T11:47:54;39.10;28.50
23713;DHT22;12035;49.978;8.298;2023-07-09T11:53:03;39.20;29.10
23713;DHT22;12035;49.978;8.298;2023-07-09T11:58:03;39.30;27.90
23713;DHT22;12035;49.978;8.298;2023-07-09T12:03:03;39.30;27.90
23713;DHT22;12035;49.978;8.298;2023-07-09T12:08:01;39.30;27.90
23713;DHT22;12035;49.978;8.298;2023-07-09T12:12:59;39.30;27.90
23713;DHT22;12035;49.978;8.298;2023-07-09T12:18:01;39.20;27.70
23713;DHT22;12035;49.978;8.298;2023-07-09T12:23:09;39.20;27.50
23713;DHT22;12035;49.978;8.298;2023-07-09T12:28:13;39.20;27.10
23713;DHT22;12035;49.978;8.298;2023-07-09T12:33:16;39.10;27.10
23713;DHT22;12035;49.978;8.298;2023-07-09T12:38:19;39.00;26.80
23713;DHT22;12035;49.978;8.298;2023-07-09T12:43:23;38.90;27.10
23713;DHT22;12035;49.978;8.298;2023-07-09T12:48:25;38.80;27.10
23713;DHT22;12035;49.978;8.298;2023-07-09T12:53:26;38.80;27.40
23713;DHT22;12035;49.978;8.298;2023-07-09T12:58:27;38.70;27.10
23713;DHT22;12035;49.978;8.298;2023-07-09T13:03:29;38.70;27.30
23713;DHT22;12035;49.978;8.298;2023-07-09T13:08:29;38.80;27.10
23713;DHT22;12035;49.978;8.298;2023-07-09T13:13:27;38.70;27.10
23713;DHT22;12035;49.978;8.298;2023-07-09T13:18:26;38.80;26.90
23713;DHT22;12035;49.978;8.298;2023-07-09T13:23:26;38.60;26.90
23713;DHT22;12035;49.978;8.298;2023-07-09T13:28:25;38.70;27.10
23713;DHT22;12035;49.978;8.298;2023-07-09T13:33:24;38.70;26.90
23713;DHT22;12035;49.978;8.298;2023-07-09T13:38:24;38.70;27.10
23713;DHT22;12035;49.978;8.298;2023-07-09T13:43:26;38.80;27.20
23713;DHT22;12035;49.978;8.298;2023-07-09T13:48:27;38.80;26.70
23713;DHT22;12035;49.978;8.298;2023-07-09T13:53:29;38.80;26.50
23713;DHT22;12035;49.978;8.298;2023-07-09T13:58:27;38.90;26.70
23713;DHT22;12035;49.978;8.298;2023-07-09T14:03:28;38.90;26.70
23713;DHT22;12035;49.978;8.298;2023-07-09T14:08:29;39.00;26.90
23713;DHT22;12035;49.978;8.298;2023-07-09T14:13:28;39.00;26.30
23713;DHT22;12035;49.978;8.298;2023-07-09T14:18:27;39.10;25.80
23713;DHT22;12035;49.978;8.298;2023-07-09T14:23:25;39.20;25.50
23713;DHT22;12035;49.978;8.298;2023-07-09T14:28:24;39.20;25.60
23713;DHT22;12035;49.978;8.298;2023-07-09T14:33:21;39.20;25.10
23713;DHT22;12035;49.978;8.298;2023-07-09T14:38:21;39.30;25.10
23713;DHT22;12035;49.978;8.298;2023-07-09T14:43:18;39.30;25.10
23713;DHT22;12035;49.978;8.298;2023-07-09T14:48:18;39.30;25.10
23713;DHT22;12035;49.978;8.298;2023-07-09T14:53:21;39.30;25.00
23713;DHT22;12035;49.978;8.298;2023-07-09T14:58:21;39.30;24.30
23713;DHT22;12035;49.978;8.298;2023-07-09T15:03:22;39.30;24.50
23713;DHT22;12035;49.978;8.298;2023-07-09T15:08:22;39.30;24.70
23713;DHT22;12035;49.978;8.298;2023-07-09T15:13:26;39.30;24.90
23713;DHT22;12035;49.978;8.298;2023-07-09T15:18:27;39.30;25.00
23713;DHT22;12035;49.978;8.298;2023-07-09T15:23:25;39.30;25.10
23713;DHT22;12035;49.978;8.298;2023-07-09T15:28:23;39.30;25.50
23713;DHT22;12035;49.978;8.298;2023-07-09T15:33:21;39.20;25.40
23713;DHT22;12035;49.978;8.298;2023-07-09T15:38:31;39.10;25.50
23713;DHT22;12035;49.978;8.298;2023-07-09T15:43:30;39.00;25.70
23713;DHT22;12035;49.978;8.298;2023-07-09T15:48:31;39.00;25.60
23713;DHT22;12035;49.978;8.298;2023-07-09T15:53:30;38.90;26.20
23713;DHT22;12035;49.978;8.298;2023-07-09T15:58:31;38.90;25.80
23713;DHT22;12035;49.978;8.298;2023-07-09T16:03:32;38.80;26.00
23713;DHT22;12035;49.978;8.298;2023-07-09T16:08:30;38.80;26.20
23713;DHT22;12035;49.978;8.298;2023-07-09T16:13:28;38.80;26.30
23713;DHT22;12035;49.978;8.298;2023-07-09T16:18:25;38.80;26.50
23713;DHT22;12035;49.978;8.298;2023-07-09T16:23:22;38.70;27.00
23713;DHT22;12035;49.978;8.298;2023-07-09T16:28:21;38.70;27.50
23713;DHT22;12035;49.978;8.298;2023-07-09T16:33:19;38.60;27.90
23713;DHT22;12035;49.978;8.298;2023-07-09T16:38:17;38.40;28.10
23713;DHT22;12035;49.978;8.298;2023-07-09T16:43:16;38.20;28.30
23713;DHT22;12035;49.978;8.298;2023-07-09T16:48:19;38.10;28.50
23713;DHT22;12035;49.978;8.298;2023-07-09T16:53:20;37.90;28.70
23713;DHT22;12035;49.978;8.298;2023-07-09T16:58:23;37.80;29.00
23713;DHT22;12035;49.978;8.298;2023-07-09T17:03:26;37.80;29.30
23713;DHT22;12035;49.978;8.298;2023-07-09T17:08:23;37.70;29.50
23713;DHT22;12035;49.978;8.298;2023-07-09T17:13:23;37.60;29.60
23713;DHT22;12035;49.978;8.298;2023-07-09T17:18:24;37.50;30.30
23713;DHT22;12035;49.978;8.298;2023-07-09T17:23:25;37.30;29.90
23713;DHT22;12035;49.978;8.298;2023-07-09T17:28:26;37.20;30.00
23713;DHT22;12035;49.978;8.298;2023-07-09T17:33:26;37.00;30.20
23713;DHT22;12035;49.978;8.298;2023-07-09T17:38:24;36.80;30.50
23713;DHT22;12035;49.978;8.298;2023-07-09T17:43:25;36.70;30.70
23713;DHT22;12035;49.978;8.298;2023-07-09T17:48:26;36.60;30.90
23713;DHT22;12035;49.978;8.298;2023-07-09T17:53:28;36.40;30.90
23713;DHT22;12035;49.978;8.298;2023-07-09T17:58:28;36.30;30.80
23713;DHT22;12035;49.978;8.298;2023-07-09T18:03:28;36.20;31.20
23713;DHT22;12035;49.978;8.298;2023-07-09T18:08:25;36.10;31.80
23713;DHT22;12035;49.978;8.298;2023-07-09T18:13:26;35.80;31.80
23713;DHT22;12035;49.978;8.298;2023-07-09T18:18:25;35.70;32.40
23713;DHT22;12035;49.978;8.298;2023-07-09T18:23:23;35.50;32.30
23713;DHT22;12035;49.978;8.298;2023-07-09T18:28:25;35.40;32.80
23713;DHT22;12035;49.978;8.298;2023-07-09T18:33:24;35.20;33.10
23713;DHT22;12035;49.978;8.298;2023-07-09T18:38:23;35.20;33.20
23713;DHT22;12035;49.978;8.298;2023-07-09T18:43:21;35.00;33.30
23713;DHT22;12035;49.978;8.298;2023-07-09T18:48:20;35.00;33.60
23713;DHT22;12035;49.978;8.298;2023-07-09T18:53:19;34.90;33.60
23713;DHT22;12035;49.978;8.298;2023-07-09T18:58:21;34.90;33.70
23713;DHT22;12035;49.978;8.298;2023-07-09T19:03:23;34.90;34.00
23713;DHT22;12035;49.978;8.298;2023-07-09T19:08:25;34.90;33.90
23713;DHT22;12035;49.978;8.298;2023-07-09T19:13:24;34.80;33.70
23713;DHT22;12035;49.978;8.298;2023-07-09T19:18:23;34.80;33.70
23713;DHT22;12035;49.978;8.298;2023-07-09T19:23:22;34.80;33.90
23713;DHT22;12035;49.978;8.298;2023-07-09T19:28:20;34.80;34.00
23713;DHT22;12035;49.978;8.298;2023-07-09T19:33:22;34.80;33.90
23713;DHT22;12035;49.978;8.298;2023-07-09T19:38:20;34.80;34.20
23713;DHT22;12035;49.978;8.298;2023-07-09T19:43:17;34.80;34.20
23713;DHT22;12035;49.978;8.298;2023-07-09T19:48:16;34.70;34.20
23713;DHT22;12035;49.978;8.298;2023-07-09T19:53:19;34.60;35.00
23713;DHT22;12035;49.978;8.298;2023-07-09T19:58:17;34.40;35.10
23713;DHT22;12035;49.978;8.298;2023-07-09T20:03:24;34.30;35.20
23713;DHT22;12035;49.978;8.298;2023-07-09T20:08:22;34.10;35.40
23713;DHT22;12035;49.978;8.298;2023-07-09T20:13:22;34.00;35.30
23713;DHT22;12035;49.978;8.298;2023-07-09T20:18:23;34.00;35.30
23713;DHT22;12035;49.978;8.298;2023-07-09T20:23:21;33.90;35.40
23713;DHT22;12035;49.978;8.298;2023-07-09T20:28:20;33.90;35.50
23713;DHT22;12035;49.978;8.298;2023-07-09T20:33:18;33.90;35.70
23713;DHT22;12035;49.978;8.298;2023-07-09T20:38:18;33.90;35.80
23713;DHT22;12035;49.978;8.298;2023-07-09T20:43:19;33.90;35.90
23713;DHT22;12035;49.978;8.298;2023-07-09T20:48:18;33.80;36.10
23713;DHT22;12035;49.978;8.298;2023-07-09T20:53:18;33.70;36.00
23713;DHT22;12035;49.978;8.298;2023-07-09T20:58:16;33.70;36.20
23713;DHT22;12035;49.978;8.298;2023-07-09T21:03:17;33.70;36.30
23713;DHT22;12035;49.978;8.298;2023-07-09T21:08:18;33.60;36.40
23713;DHT22;12035;49.978;8.298;2023-07-09T21:13:18;33.50;36.40
23713;DHT22;12035;49.978;8.298;2023-07-09T21:18:17;33.50;36.40
23713;DHT22;12035;49.978;8.298;2023-07-09T21:23:18;33.40;36.40
23713;DHT22;12035;49.978;8.298;2023-07-09T21:28:16;33.40;36.70
23713;DHT22;12035;49.978;8.298;2023-07-09T21:33:15;33.30;36.80
23713;DHT22;12035;49.978;8.298;2023-07-09T21:38:19;33.20;37.00
23713;DHT22;12035;49.978;8.298;2023-07-09T21:43:18;33.20;37.30
23713;DHT22;12035;49.978;8.298;2023-07-09T21:48:25;33.10;37.30
23713;DHT22;12035;49.978;8.298;2023-07-09T21:53:25;33.00;37.70
23713;DHT22;12035;49.978;8.298;2023-07-09T21:58:25;32.90;37.70
23713;DHT22;12035;49.978;8.298;2023-07-09T22:03:23;32.70;37.80
23713;DHT22;12035;49.978;8.298;2023-07-09T22:08:20;32.70;38.10
23713;DHT22;12035;49.978;8.298;2023-07-09T22:13:20;32.50;38.30
23713;DHT22;12035;49.978;8.298;2023-07-09T22:18:19;32.40;38.60
23713;DHT22;12035;49.978;8.298;2023-07-09T22:23:20;32.30;38.70
23713;DHT22;12035;49.978;8.298;2023-07-09T22:28:20;32.20;38.90
23713;DHT22;12035;49.978;8.298;2023-07-09T22:33:18;32.10;39.60
23713;DHT22;12035;49.978;8.298;2023-07-09T22:38:19;32.00;39.00
23713;DHT22;12035;49.978;8.298;2023-07-09T22:43:17;32.00;39.40
23713;DHT22;12035;49.978;8.298;2023-07-09T22:48:16;31.80;39.20
23713;DHT22;12035;49.978;8.298;2023-07-09T22:53:16;31.80;39.60
23713;DHT22;12035;49.978;8.298;2023-07-09T22:58:15;31.80;39.60
23713;DHT22;12035;49.978;8.298;2023-07-09T23:03:16;31.70;39.80
23713;DHT22;12035;49.978;8.298;2023-07-09T23:08:21;31.60;39.90
23713;DHT22;12035;49.978;8.298;2023-07-09T23:13:19;31.50;40.30
23713;DHT22;12035;49.978;8.298;2023-07-09T23:18:19;31.40;40.10
23713;DHT22;12035;49.978;8.298;2023-07-09T23:23:16;31.40;41.00
23713;DHT22;12035;49.978;8.298;2023-07-09T23:28:14;31.40;40.50
23713;DHT22;12035;49.978;8.298;2023-07-09T23:33:24;31.40;40.70
23713;DHT22;12035;49.978;8.298;2023-07-09T23:38:22;31.30;41.00
23713;DHT22;12035;49.978;8.298;2023-07-09T23:43:20;31.20;40.80
23713;DHT22;12035;49.978;8.298;2023-07-09T23:48:26;31.20;41.10
23713;DHT22;12035;49.978;8.298;2023-07-09T23:53:25;31.10;41.30
23713;DHT22;12035;49.978;8.298;2023-07-09T23:58:25;31.10;41.30
